sensor_id;sensor_type;location;lat;lon;timestamp;pressure;altitude;pressure_sealevel;temperature;humidity
15634;BME280;14654;48.898;8.308;2023-02-04T00:00:18;101740.34;;;7.31;100.00
15634;BME280;14654;48.898;8.308;2023-02-04T00:02:43;101742.94;;;7.31;100.00
15634;BME280;14654;48.898;8.308;2023-02-04T00:05:10;101733.50;;;7.33;100.00
15634;BME280;14654;48.898;8.308;2023-02-04T00:07:36;101736.09;;;7.33;100.00
15634;BME280;14654;48.898;8.308;2023-02-04T00:10:03;101727.50;;;7.33;100.00
15634;BME280;14654;48.898;8.308;2023-02-04T00:12:29;101725.63;;;7.27;100.00
15634;BME280;14654;48.898;8.308;2023-02-04T00:14:54;101725.63;;;7.27;100.00
15634;BME280;14654;48.898;8.308;2023-02-04T00:17:19;101729.91;;;7.27;100.00
15634;BME280;14654;48.898;8.308;2023-02-04T00:19:45;101729.91;;;7.27;100.00
15634;BME280;14654;48.898;8.308;2023-02-04T00:22:10;101741.91;;;7.26;100.00
15634;BME280;14654;48.898;8.308;2023-02-04T00:24:36;101741.91;;;7.26;100.00
15634;BME280;14654;48.898;8.308;2023-02-04T00:27:02;101741.94;;;7.28;100.00
15634;BME280;14654;48.898;8.308;2023-02-04T00:29:28;101734.22;;;7.28;100.00
15634;BME280;14654;48.898;8.308;2023-02-04T00:31:53;101730.78;;;7.27;100.00
15634;BME280;14654;48.898;8.308;2023-02-04T00:34:19;101738.47;;;7.26;100.00
15634;BME280;14654;48.898;8.308;2023-02-04T00:36:44;101741.91;;;7.26;100.00
15634;BME280;14654;48.898;8.308;2023-02-04T00:39:10;101746.34;;;7.30;100.00
15634;BME280;14654;48.898;8.308;2023-02-04T00:41:35;101747.09;;;7.28;100.00
15634;BME280;14654;48.898;8.308;2023-02-04T00:44:00;101742.75;;;7.25;100.00
15634;BME280;14654;48.898;8.308;2023-02-04T00:46:26;101740.19;;;7.27;100.00
15634;BME280;14654;48.898;8.308;2023-02-04T00:48:51;101735.13;;;7.28;100.00
15634;BME280;14654;48.898;8.308;2023-02-04T00:51:16;101740.25;;;7.28;100.00
15634;BME280;14654;48.898;8.308;2023-02-04T00:53:41;101737.63;;;7.27;100.00
15634;BME280;14654;48.898;8.308;2023-02-04T00:56:07;101747.91;;;7.27;100.00
15634;BME280;14654;48.898;8.308;2023-02-04T00:58:32;101746.28;;;7.29;100.00
15634;BME280;14654;48.898;8.308;2023-02-04T01:00:57;101736.88;;;7.31;100.00
15634;BME280;14654;48.898;8.308;2023-02-04T01:03:23;101735.19;;;7.31;100.00
15634;BME280;14654;48.898;8.308;2023-02-04T01:05:48;101739.38;;;7.28;100.00
15634;BME280;14654;48.898;8.308;2023-02-04T01:08:13;101736.03;;;7.30;100.00
15634;BME280;14654;48.898;8.308;2023-02-04T01:10:39;101737.63;;;7.27;100.00
15634;BME280;14654;48.898;8.308;2023-02-04T01:13:04;101745.31;;;7.25;100.00
15634;BME280;14654;48.898;8.308;2023-02-04T01:15:30;101738.50;;;7.27;100.00
15634;BME280;14654;48.898;8.308;2023-02-04T01:17:55;101734.22;;;7.28;100.00
15634;BME280;14654;48.898;8.308;2023-02-04T01:20:20;101722.22;;;7.28;100.00
15634;BME280;14654;48.898;8.308;2023-02-04T01:22:46;101727.47;;;7.31;100.00
15634;BME280;14654;48.898;8.308;2023-02-04T01:25:11;101732.63;;;7.31;100.00
15634;BME280;14654;48.898;8.308;2023-02-04T01:27:36;101747.16;;;7.29;100.00
15634;BME280;14654;48.898;8.308;2023-02-04T01:30:03;101747.16;;;7.29;100.00
15634;BME280;14654;48.898;8.308;2023-02-04T01:32:29;101743.66;;;7.27;100.00
15634;BME280;14654;48.898;8.308;2023-02-04T01:34:54;101757.41;;;7.28;100.00
15634;BME280;14654;48.898;8.308;2023-02-04T01:37:19;101748.94;;;7.32;100.00
15634;BME280;14654;48.898;8.308;2023-02-04T01:39:45;101740.19;;;7.27;100.00
15634;BME280;14654;48.898;8.308;2023-02-04T01:42:10;101739.47;;;7.31;100.00
15634;BME280;14654;48.898;8.308;2023-02-04T01:44:36;101743.56;;;7.24;100.00
15634;BME280;14654;48.898;8.308;2023-02-04T01:47:01;101748.69;;;7.23;100.00
15634;BME280;14654;48.898;8.308;2023-02-04T01:49:27;101746.84;;;7.19;100.00
15634;BME280;14654;48.898;8.308;2023-02-04T01:51:53;101744.16;;;7.14;100.00
15634;BME280;14654;48.898;8.308;2023-02-04T01:54:18;101743.22;;;7.12;100.00
15634;BME280;14654;48.898;8.308;2023-02-04T01:56:46;101744.97;;;7.13;100.00
15634;BME280;14654;48.898;8.308;2023-02-04T01:59:15;101744.91;;;7.11;100.00
15634;BME280;14654;48.898;8.308;2023-02-04T02:01:46;101750.91;;;7.10;100.00
15634;BME280;14654;48.898;8.308;2023-02-04T02:04:15;101738.03;;;7.10;100.00
15634;BME280;14654;48.898;8.308;2023-02-04T02:06:51;101743.13;;;7.09;100.00
15634;BME280;14654;48.898;8.308;2023-02-04T02:09:18;101744.78;;;7.07;100.00
15634;BME280;14654;48.898;8.308;2023-02-04T02:11:43;101733.56;;;7.05;100.00
15634;BME280;14654;48.898;8.308;2023-02-04T02:14:09;101739.53;;;7.04;100.00
15634;BME280;14654;48.898;8.308;2023-02-04T02:16:35;101734.38;;;7.02;100.00
15634;BME280;14654;48.898;8.308;2023-02-04T02:19:00;101732.63;;;7.01;100.00
15634;BME280;14654;48.898;8.308;2023-02-04T02:21:33;101737.81;;;7.03;100.00
15634;BME280;14654;48.898;8.308;2023-02-04T02:23:59;101740.41;;;7.03;100.00
15634;BME280;14654;48.898;8.308;2023-02-04T02:26:27;101742.13;;;7.04;100.00
15634;BME280;14654;48.898;8.308;2023-02-04T02:28:52;101743.88;;;7.05;100.00
15634;BME280;14654;48.898;8.308;2023-02-04T02:31:20;101741.34;;;7.06;100.00
15634;BME280;14654;48.898;8.308;2023-02-04T02:33:46;101742.22;;;7.07;100.00
15634;BME280;14654;48.898;8.308;2023-02-04T02:36:12;101744.91;;;7.11;100.00
15634;BME280;14654;48.898;8.308;2023-02-04T02:38:39;101753.50;;;7.10;100.00
15634;BME280;14654;48.898;8.308;2023-02-04T02:41:04;101756.91;;;7.09;100.00
15634;BME280;14654;48.898;8.308;2023-02-04T02:43:34;101755.19;;;7.10;100.00
15634;BME280;14654;48.898;8.308;2023-02-04T02:46:00;101763.78;;;7.10;100.00
15634;BME280;14654;48.898;8.308;2023-02-04T02:48:26;101758.66;;;7.10;100.00
15634;BME280;14654;48.898;8.308;2023-02-04T02:50:51;101756.06;;;7.10;100.00
15634;BME280;14654;48.898;8.308;2023-02-04T02:53:18;101758.66;;;7.10;100.00
15634;BME280;14654;48.898;8.308;2023-02-04T02:55:45;101755.22;;;7.11;100.00
15634;BME280;14654;48.898;8.308;2023-02-04T02:58:30;101769.84;;;7.12;100.00
15634;BME280;14654;48.898;8.308;2023-02-04T03:01:04;101790.50;;;7.14;100.00
15634;BME280;14654;48.898;8.308;2023-02-04T03:03:32;101805.25;;;7.20;100.00
15634;BME280;14654;48.898;8.308;2023-02-04T03:06:07;101806.63;;;7.08;100.00
15634;BME280;14654;48.898;8.308;2023-02-04T03:08:34;101803.63;;;6.94;100.00
15634;BME280;14654;48.898;8.308;2023-02-04T03:11:00;101801.97;;;6.96;100.00
15634;BME280;14654;48.898;8.308;2023-02-04T03:13:25;101796.56;;;6.87;100.00
15634;BME280;14654;48.898;8.308;2023-02-04T03:15:50;101803.34;;;6.85;100.00
15634;BME280;14654;48.898;8.308;2023-02-04T03:18:18;101812.00;;;6.87;100.00
15634;BME280;14654;48.898;8.308;2023-02-04T03:20:45;101815.19;;;6.80;100.00
15634;BME280;14654;48.898;8.308;2023-02-04T03:23:11;101816.72;;;6.73;100.00
15634;BME280;14654;48.898;8.308;2023-02-04T03:25:37;101814.97;;;6.72;100.00
15634;BME280;14654;48.898;8.308;2023-02-04T03:28:03;101809.91;;;6.75;100.00
15634;BME280;14654;48.898;8.308;2023-02-04T03:30:30;101807.44;;;6.78;100.00
15634;BME280;14654;48.898;8.308;2023-02-04T03:32:56;101813.59;;;6.83;100.00
15634;BME280;14654;48.898;8.308;2023-02-04T03:35:21;101817.88;;;6.83;100.00
15634;BME280;14654;48.898;8.308;2023-02-04T03:37:47;101821.38;;;6.85;100.00
15634;BME280;14654;48.898;8.308;2023-02-04T03:40:12;101823.13;;;6.86;100.00
15634;BME280;14654;48.898;8.308;2023-02-04T03:42:38;101822.22;;;6.85;100.00
15634;BME280;14654;48.898;8.308;2023-02-04T03:45:03;101824.06;;;6.88;100.00
15634;BME280;14654;48.898;8.308;2023-02-04T03:47:29;101831.81;;;6.90;100.00
15634;BME280;14654;48.898;8.308;2023-02-04T03:49:54;101829.25;;;6.91;100.00
15634;BME280;14654;48.898;8.308;2023-02-04T03:52:19;101835.34;;;6.93;100.00
15634;BME280;14654;48.898;8.308;2023-02-04T03:54:45;101837.09;;;6.94;100.00
15634;BME280;14654;48.898;8.308;2023-02-04T03:57:11;101838.81;;;6.94;100.00
15634;BME280;14654;48.898;8.308;2023-02-04T03:59:36;101852.53;;;6.94;100.00
15634;BME280;14654;48.898;8.308;2023-02-04T04:02:01;101857.66;;;6.93;100.00
15634;BME280;14654;48.898;8.308;2023-02-04T04:04:28;101860.13;;;6.90;100.00
15634;BME280;14654;48.898;8.308;2023-02-04T04:06:54;101860.81;;;6.84;100.00
15634;BME280;14654;48.898;8.308;2023-02-04T04:09:19;101861.53;;;6.80;100.00
15634;BME280;14654;48.898;8.308;2023-02-04T04:11:45;101861.41;;;6.77;100.00
15634;BME280;14654;48.898;8.308;2023-02-04T04:14:10;101865.69;;;6.76;100.00
15634;BME280;14654;48.898;8.308;2023-02-04T04:16:35;101867.25;;;6.71;100.00
15634;BME280;14654;48.898;8.308;2023-02-04T04:19:00;101870.63;;;6.70;100.00
15634;BME280;14654;48.898;8.308;2023-02-04T04:21:26;101869.78;;;6.69;100.00
15634;BME280;14654;48.898;8.308;2023-02-04T04:23:51;101873.09;;;6.67;100.00
15634;BME280;14654;48.898;8.308;2023-02-04T04:26:16;101876.50;;;6.66;100.00
15634;BME280;14654;48.898;8.308;2023-02-04T04:28:42;101873.06;;;6.65;100.00
15634;BME280;14654;48.898;8.308;2023-02-04T04:31:07;101873.16;;;6.68;100.00
15634;BME280;14654;48.898;8.308;2023-02-04T04:33:32;101875.78;;;6.70;100.00
15634;BME280;14654;48.898;8.308;2023-02-04T04:35:58;101869.81;;;6.71;100.00
15634;BME280;14654;48.898;8.308;2023-02-04T04:38:23;101881.00;;;6.71;100.00
15634;BME280;14654;48.898;8.308;2023-02-04T04:40:48;101888.53;;;6.67;100.00
15634;BME280;14654;48.898;8.308;2023-02-04T04:43:14;101892.72;;;6.63;100.00
15634;BME280;14654;48.898;8.308;2023-02-04T04:45:39;101882.31;;;6.60;100.00
15634;BME280;14654;48.898;8.308;2023-02-04T04:48:04;101891.59;;;6.55;100.00
15634;BME280;14654;48.898;8.308;2023-02-04T04:50:30;101894.03;;;6.50;100.00
15634;BME280;14654;48.898;8.308;2023-02-04T04:52:55;101904.25;;;6.49;100.00
15634;BME280;14654;48.898;8.308;2023-02-04T04:55:20;101902.38;;;6.45;100.00
15634;BME280;14654;48.898;8.308;2023-02-04T04:57:45;101898.91;;;6.43;100.00
15634;BME280;14654;48.898;8.308;2023-02-04T05:00:15;101895.41;;;6.40;100.00
15634;BME280;14654;48.898;8.308;2023-02-04T05:02:41;101897.09;;;6.40;100.00
15634;BME280;14654;48.898;8.308;2023-02-04T05:05:06;101897.03;;;6.38;100.00
15634;BME280;14654;48.898;8.308;2023-02-04T05:07:32;101894.47;;;6.38;100.00
15634;BME280;14654;48.898;8.308;2023-02-04T05:09:57;101897.97;;;6.40;100.00
15634;BME280;14654;48.898;8.308;2023-02-04T05:12:22;101890.25;;;6.40;100.00
15634;BME280;14654;48.898;8.308;2023-02-04T05:14:47;101897.16;;;6.42;100.00
15634;BME280;14654;48.898;8.308;2023-02-04T05:17:13;101898.00;;;6.42;100.00
15634;BME280;14654;48.898;8.308;2023-02-04T05:19:38;101898.00;;;6.42;100.00
15634;BME280;14654;48.898;8.308;2023-02-04T05:22:03;101894.63;;;6.43;100.00
15634;BME280;14654;48.898;8.308;2023-02-04T05:24:29;101889.53;;;6.45;100.00
15634;BME280;14654;48.898;8.308;2023-02-04T05:26:54;101891.22;;;6.44;100.00
15634;BME280;14654;48.898;8.308;2023-02-04T05:29:19;101889.59;;;6.46;100.00
15634;BME280;14654;48.898;8.308;2023-02-04T05:31:44;101879.31;;;6.46;100.00
15634;BME280;14654;48.898;8.308;2023-02-04T05:34:10;101898.13;;;6.45;100.00
15634;BME280;14654;48.898;8.308;2023-02-04T05:36:35;101895.47;;;6.44;100.00
15634;BME280;14654;48.898;8.308;2023-02-04T05:39:00;101895.41;;;6.40;100.00
15634;BME280;14654;48.898;8.308;2023-02-04T05:41:26;101897.88;;;6.37;100.00
15634;BME280;14654;48.898;8.308;2023-02-04T05:43:51;101908.03;;;6.34;100.00
15634;BME280;14654;48.898;8.308;2023-02-04T05:46:16;101908.00;;;6.33;100.00
15634;BME280;14654;48.898;8.308;2023-02-04T05:48:41;101907.94;;;6.31;100.00
15634;BME280;14654;48.898;8.308;2023-02-04T05:51:07;101907.09;;;6.32;100.00
15634;BME280;14654;48.898;8.308;2023-02-04T05:53:32;101900.22;;;6.31;100.00
15634;BME280;14654;48.898;8.308;2023-02-04T05:55:57;101899.28;;;6.29;100.00
15634;BME280;14654;48.898;8.308;2023-02-04T05:58:23;101894.97;;;6.28;100.00
15634;BME280;14654;48.898;8.308;2023-02-04T06:00:48;101903.59;;;6.30;100.00
15634;BME280;14654;48.898;8.308;2023-02-04T06:03:13;101908.69;;;6.29;100.00
15634;BME280;14654;48.898;8.308;2023-02-04T06:05:39;101907.00;;;6.29;100.00
15634;BME280;14654;48.898;8.308;2023-02-04T06:08:04;101914.72;;;6.29;100.00
15634;BME280;14654;48.898;8.308;2023-02-04T06:10:30;101923.31;;;6.30;100.00
15634;BME280;14654;48.898;8.308;2023-02-04T06:12:55;101922.41;;;6.29;100.00
15634;BME280;14654;48.898;8.308;2023-02-04T06:15:21;101933.63;;;6.31;100.00
15634;BME280;14654;48.898;8.308;2023-02-04T06:17:46;101934.47;;;6.30;100.00
15634;BME280;14654;48.898;8.308;2023-02-04T06:20:13;101934.38;;;6.27;100.00
15634;BME280;14654;48.898;8.308;2023-02-04T06:22:39;101945.53;;;6.28;100.00
15634;BME280;14654;48.898;8.308;2023-02-04T06:25:04;101938.66;;;6.28;100.00
15634;BME280;14654;48.898;8.308;2023-02-04T06:27:30;101945.56;;;6.29;100.00
15634;BME280;14654;48.898;8.308;2023-02-04T06:29:55;101960.16;;;6.30;100.00
15634;BME280;14654;48.898;8.308;2023-02-04T06:32:21;101968.69;;;6.29;100.00
15634;BME280;14654;48.898;8.308;2023-02-04T06:34:47;101964.44;;;6.30;100.00
15634;BME280;14654;48.898;8.308;2023-02-04T06:37:12;101964.38;;;6.28;100.00
15634;BME280;14654;48.898;8.308;2023-02-04T06:39:38;101966.09;;;6.28;100.00
15634;BME280;14654;48.898;8.308;2023-02-04T06:42:04;101965.22;;;6.27;100.00
15634;BME280;14654;48.898;8.308;2023-02-04T06:44:29;101970.28;;;6.25;100.00
15634;BME280;14654;48.898;8.308;2023-02-04T06:46:55;101969.47;;;6.27;100.00
15634;BME280;14654;48.898;8.308;2023-02-04T06:49:20;101980.53;;;6.24;100.00
15634;BME280;14654;48.898;8.308;2023-02-04T06:51:45;101982.09;;;6.20;100.00
15634;BME280;14654;48.898;8.308;2023-02-04T06:54:12;101982.94;;;6.19;100.00
15634;BME280;14654;48.898;8.308;2023-02-04T06:56:37;101980.25;;;6.16;100.00
15634;BME280;14654;48.898;8.308;2023-02-04T06:59:03;101987.06;;;6.16;100.00
15634;BME280;14654;48.898;8.308;2023-02-04T07:01:28;101988.00;;;6.18;100.00
15634;BME280;14654;48.898;8.308;2023-02-04T07:03:53;101990.59;;;6.18;100.00
15634;BME280;14654;48.898;8.308;2023-02-04T07:06:19;101995.72;;;6.18;100.00
15634;BME280;14654;48.898;8.308;2023-02-04T07:08:44;101995.69;;;6.16;100.00
15634;BME280;14654;48.898;8.308;2023-02-04T07:11:11;101994.78;;;6.16;100.00
15634;BME280;14654;48.898;8.308;2023-02-04T07:13:37;101998.25;;;6.16;100.00
15634;BME280;14654;48.898;8.308;2023-02-04T07:16:02;101995.72;;;6.18;100.00
15634;BME280;14654;48.898;8.308;2023-02-04T07:18:27;101993.16;;;6.18;100.00
15634;BME280;14654;48.898;8.308;2023-02-04T07:20:52;101998.38;;;6.19;100.00
15634;BME280;14654;48.898;8.308;2023-02-04T07:23:18;102009.53;;;6.20;100.00
15634;BME280;14654;48.898;8.308;2023-02-04T07:25:43;102012.22;;;6.23;100.00
15634;BME280;14654;48.898;8.308;2023-02-04T07:28:09;102010.56;;;6.25;100.00
15634;BME280;14654;48.898;8.308;2023-02-04T07:30:34;102014.94;;;6.28;100.00
15634;BME280;14654;48.898;8.308;2023-02-04T07:32:59;102027.03;;;6.30;100.00
15634;BME280;14654;48.898;8.308;2023-02-04T07:35:25;102026.97;;;6.29;100.00
15634;BME280;14654;48.898;8.308;2023-02-04T07:37:50;102032.91;;;6.26;100.00
15634;BME280;14654;48.898;8.308;2023-02-04T07:40:15;102032.00;;;6.25;100.00
15634;BME280;14654;48.898;8.308;2023-02-04T07:42:41;102031.31;;;6.30;100.00
15634;BME280;14654;48.898;8.308;2023-02-04T07:45:07;102035.78;;;6.35;100.00
15634;BME280;14654;48.898;8.308;2023-02-04T07:47:32;102034.28;;;6.40;100.00
15634;BME280;14654;48.898;8.308;2023-02-04T07:49:58;102040.44;;;6.46;100.00
15634;BME280;14654;48.898;8.308;2023-02-04T07:52:24;102040.56;;;6.49;100.00
15634;BME280;14654;48.898;8.308;2023-02-04T07:54:49;102048.34;;;6.50;100.00
15634;BME280;14654;48.898;8.308;2023-02-04T07:57:16;102050.97;;;6.52;100.00
15634;BME280;14654;48.898;8.308;2023-02-04T07:59:42;102056.09;;;6.52;100.00
15634;BME280;14654;48.898;8.308;2023-02-04T08:02:08;102064.75;;;6.54;100.00
15634;BME280;14654;48.898;8.308;2023-02-04T08:04:34;102076.03;;;6.58;100.00
15634;BME280;14654;48.898;8.308;2023-02-04T08:06:59;102071.03;;;6.62;100.00
15634;BME280;14654;48.898;8.308;2023-02-04T08:09:25;102073.84;;;6.68;100.00
15634;BME280;14654;48.898;8.308;2023-02-04T08:11:51;102075.81;;;6.76;100.00
15634;BME280;14654;48.898;8.308;2023-02-04T08:14:17;102080.28;;;6.81;100.00
15634;BME280;14654;48.898;8.308;2023-02-04T08:16:42;102085.72;;;6.89;100.00
15634;BME280;14654;48.898;8.308;2023-02-04T08:19:07;102081.66;;;6.96;100.00
15634;BME280;14654;48.898;8.308;2023-02-04T08:21:32;102092.19;;;7.02;100.00
15634;BME280;14654;48.898;8.308;2023-02-04T08:23:58;102089.75;;;7.07;100.00
15634;BME280;14654;48.898;8.308;2023-02-04T08:26:23;102095.94;;;7.12;100.00
15634;BME280;14654;48.898;8.308;2023-02-04T08:28:48;102095.38;;;7.21;100.00
15634;BME280;14654;48.898;8.308;2023-02-04T08:31:14;102097.44;;;7.31;100.00
15634;BME280;14654;48.898;8.308;2023-02-04T08:33:39;102093.44;;;7.39;100.00
15634;BME280;14654;48.898;8.308;2023-02-04T08:36:05;102097.13;;;7.47;100.00
15634;BME280;14654;48.898;8.308;2023-02-04T08:38:31;102109.44;;;7.56;100.00
15634;BME280;14654;48.898;8.308;2023-02-04T08:40:56;102102.88;;;7.66;100.00
15634;BME280;14654;48.898;8.308;2023-02-04T08:43:21;102102.41;;;7.78;100.00
15634;BME280;14654;48.898;8.308;2023-02-04T08:45:47;102108.72;;;7.88;100.00
15634;BME280;14654;48.898;8.308;2023-02-04T08:48:12;102105.63;;;7.98;100.00
15634;BME280;14654;48.898;8.308;2023-02-04T08:50:37;102110.19;;;8.07;100.00
15634;BME280;14654;48.898;8.308;2023-02-04T08:53:03;102113.81;;;8.14;100.00
15634;BME280;14654;48.898;8.308;2023-02-04T08:55:28;102109.59;;;8.16;100.00
15634;BME280;14654;48.898;8.308;2023-02-04T08:57:53;102122.66;;;8.22;100.00
15634;BME280;14654;48.898;8.308;2023-02-04T09:00:19;102127.13;;;8.28;100.00
15634;BME280;14654;48.898;8.308;2023-02-04T09:02:44;102131.47;;;8.29;100.00
15634;BME280;14654;48.898;8.308;2023-02-04T09:05:10;102123.03;;;8.34;100.00
15634;BME280;14654;48.898;8.308;2023-02-04T09:07:35;102130.00;;;8.37;100.00
15634;BME280;14654;48.898;8.308;2023-02-04T09:10:00;102120.50;;;8.36;100.00
15634;BME280;14654;48.898;8.308;2023-02-04T09:12:26;102125.53;;;8.31;100.00
15634;BME280;14654;48.898;8.308;2023-02-04T09:14:51;102131.53;;;8.30;100.00
15634;BME280;14654;48.898;8.308;2023-02-04T09:17:16;102139.25;;;8.30;100.00
15634;BME280;14654;48.898;8.308;2023-02-04T09:19:43;102138.56;;;8.36;100.00
15634;BME280;14654;48.898;8.308;2023-02-04T09:22:08;102137.03;;;8.43;100.00
15634;BME280;14654;48.898;8.308;2023-02-04T09:24:34;102137.16;;;8.47;100.00
15634;BME280;14654;48.898;8.308;2023-02-04T09:26:59;102146.63;;;8.47;100.00
15634;BME280;14654;48.898;8.308;2023-02-04T09:29:24;102141.78;;;8.29;100.00
15634;BME280;14654;48.898;8.308;2023-02-04T09:31:50;102138.09;;;8.20;100.00
15634;BME280;14654;48.898;8.308;2023-02-04T09:34:15;102132.84;;;8.17;100.00
15634;BME280;14654;48.898;8.308;2023-02-04T09:36:40;102126.84;;;8.18;100.00
15634;BME280;14654;48.898;8.308;2023-02-04T09:39:07;102140.13;;;8.31;100.00
15634;BME280;14654;48.898;8.308;2023-02-04T09:41:34;102146.00;;;8.27;100.00
15634;BME280;14654;48.898;8.308;2023-02-04T09:44:00;102143.16;;;8.17;100.00
15634;BME280;14654;48.898;8.308;2023-02-04T09:46:28;102148.22;;;8.14;100.00
15634;BME280;14654;48.898;8.308;2023-02-04T09:48:57;102153.38;;;8.14;100.00
15634;BME280;14654;48.898;8.308;2023-02-04T09:51:26;102152.41;;;8.11;100.00
15634;BME280;14654;48.898;8.308;2023-02-04T09:53:53;102153.50;;;8.19;100.00
15634;BME280;14654;48.898;8.308;2023-02-04T09:56:19;102151.13;;;8.25;100.00
15634;BME280;14654;48.898;8.308;2023-02-04T09:58:45;102153.75;;;8.27;100.00
15634;BME280;14654;48.898;8.308;2023-02-04T10:01:15;102154.09;;;8.37;100.00
15634;BME280;14654;48.898;8.308;2023-02-04T10:03:43;102159.44;;;8.44;100.00
15634;BME280;14654;48.898;8.308;2023-02-04T10:06:17;102165.28;;;8.38;100.00
15634;BME280;14654;48.898;8.308;2023-02-04T10:08:45;102161.00;;;8.38;100.00
15634;BME280;14654;48.898;8.308;2023-02-04T10:11:12;102163.69;;;8.43;100.00
15634;BME280;14654;48.898;8.308;2023-02-04T10:13:44;102162.28;;;8.51;100.00
15634;BME280;14654;48.898;8.308;2023-02-04T10:16:25;102160.63;;;8.53;100.00
15634;BME280;14654;48.898;8.308;2023-02-04T10:18:56;102155.09;;;8.43;100.00
15634;BME280;14654;48.898;8.308;2023-02-04T10:21:26;102154.16;;;8.39;100.00
15634;BME280;14654;48.898;8.308;2023-02-04T10:23:55;102157.72;;;8.44;100.00
15634;BME280;14654;48.898;8.308;2023-02-04T10:26:21;102157.81;;;8.47;100.00
15634;BME280;14654;48.898;8.308;2023-02-04T10:28:47;102163.94;;;8.49;100.00
15634;BME280;14654;48.898;8.308;2023-02-04T10:34:42;102176.19;;;8.29;100.00
15634;BME280;14654;48.898;8.308;2023-02-04T10:37:19;102173.28;;;8.18;100.00
15634;BME280;14654;48.898;8.308;2023-02-04T10:39:44;102170.50;;;8.12;100.00
15634;BME280;14654;48.898;8.308;2023-02-04T10:42:27;102166.94;;;8.08;100.00
15634;BME280;14654;48.898;8.308;2023-02-04T10:44:53;102162.59;;;8.06;100.00
15634;BME280;14654;48.898;8.308;2023-02-04T10:47:22;102172.22;;;8.12;100.00
15634;BME280;14654;48.898;8.308;2023-02-04T10:50:01;102169.78;;;8.16;100.00
15634;BME280;14654;48.898;8.308;2023-02-04T10:52:37;102164.00;;;8.23;100.00
15634;BME280;14654;48.898;8.308;2023-02-04T10:55:06;102158.28;;;8.34;100.00
15634;BME280;14654;48.898;8.308;2023-02-04T10:57:38;102166.16;;;8.38;100.00
15634;BME280;14654;48.898;8.308;2023-02-04T11:00:10;102165.28;;;8.38;100.00
15634;BME280;14654;48.898;8.308;2023-02-04T11:05:32;102151.75;;;8.18;100.00
15634;BME280;14654;48.898;8.308;2023-02-04T11:07:59;102160.88;;;8.06;100.00
15634;BME280;14654;48.898;8.308;2023-02-04T11:10:31;102158.50;;;8.13;100.00
15634;BME280;14654;48.898;8.308;2023-02-04T11:15:53;102158.72;;;7.93;100.00
15634;BME280;14654;48.898;8.308;2023-02-04T11:20:48;102155.91;;;7.85;100.00
15634;BME280;14654;48.898;8.308;2023-02-04T11:23:34;102165.34;;;7.85;100.00
15634;BME280;14654;48.898;8.308;2023-02-04T11:31:12;102168.22;;;7.94;100.00
15634;BME280;14654;48.898;8.308;2023-02-04T11:33:40;102168.31;;;7.97;100.00
15634;BME280;14654;48.898;8.308;2023-02-04T11:36:09;102161.44;;;8.25;100.00
15634;BME280;14654;48.898;8.308;2023-02-04T11:38:36;102167.34;;;8.48;100.00
15634;BME280;14654;48.898;8.308;2023-02-04T11:41:02;102167.41;;;8.80;100.00
15634;BME280;14654;48.898;8.308;2023-02-04T11:43:32;102156.28;;;9.13;100.00
15634;BME280;14654;48.898;8.308;2023-02-04T11:46:09;102161.03;;;9.30;100.00
15634;BME280;14654;48.898;8.308;2023-02-04T11:48:37;102154.03;;;9.61;100.00
15634;BME280;14654;48.898;8.308;2023-02-04T11:51:11;102156.50;;;9.90;100.00
15634;BME280;14654;48.898;8.308;2023-02-04T11:53:38;102161.88;;;10.01;100.00
15634;BME280;14654;48.898;8.308;2023-02-04T11:56:03;102160.41;;;10.11;100.00
15634;BME280;14654;48.898;8.308;2023-02-04T11:58:30;102162.22;;;10.15;100.00
15634;BME280;14654;48.898;8.308;2023-02-04T12:00:55;102163.63;;;10.00;100.00
15634;BME280;14654;48.898;8.308;2023-02-04T12:03:22;102169.53;;;9.95;100.00
15634;BME280;14654;48.898;8.308;2023-02-04T12:05:48;102159.44;;;9.70;100.00
15634;BME280;14654;48.898;8.308;2023-02-04T12:13:33;102162.22;;;9.11;100.00
15634;BME280;14654;48.898;8.308;2023-02-04T12:16:09;102157.47;;;8.94;100.00
15634;BME280;14654;48.898;8.308;2023-02-04T12:18:34;102165.59;;;8.78;100.00
15634;BME280;14654;48.898;8.308;2023-02-04T12:21:00;102162.50;;;8.59;100.00
15634;BME280;14654;48.898;8.308;2023-02-04T12:23:27;102163.13;;;8.52;100.00
15634;BME280;14654;48.898;8.308;2023-02-04T12:25:53;102165.31;;;8.39;100.00
15634;BME280;14654;48.898;8.308;2023-02-04T12:28:19;102162.50;;;8.32;100.00
15634;BME280;14654;48.898;8.308;2023-02-04T12:30:44;102160.53;;;8.23;100.00
15634;BME280;14654;48.898;8.308;2023-02-04T12:33:10;102161.22;;;8.17;100.00
15634;BME280;14654;48.898;8.308;2023-02-04T12:35:36;102167.16;;;8.15;100.00
15634;BME280;14654;48.898;8.308;2023-02-04T12:38:01;102163.91;;;8.20;100.00
15634;BME280;14654;48.898;8.308;2023-02-04T12:40:27;102160.03;;;8.35;100.00
15634;BME280;14654;48.898;8.308;2023-02-04T12:42:52;102149.41;;;8.53;100.00
15634;BME280;14654;48.898;8.308;2023-02-04T12:45:18;102150.78;;;8.71;100.00
15634;BME280;14654;48.898;8.308;2023-02-04T12:47:43;102149.59;;;8.90;100.00
15634;BME280;14654;48.898;8.308;2023-02-04T12:50:11;102161.19;;;9.04;100.00
15634;BME280;14654;48.898;8.308;2023-02-04T12:52:37;102158.19;;;9.21;100.00
15634;BME280;14654;48.898;8.308;2023-02-04T12:55:07;102160.38;;;9.39;100.00
15634;BME280;14654;48.898;8.308;2023-02-04T12:57:33;102158.34;;;9.60;100.00
15634;BME280;14654;48.898;8.308;2023-02-04T12:59:59;102165.84;;;9.85;100.00
15634;BME280;14654;48.898;8.308;2023-02-04T13:02:26;102157.88;;;10.12;100.00
15634;BME280;14654;48.898;8.308;2023-02-04T13:04:52;102154.94;;;10.36;100.00
15634;BME280;14654;48.898;8.308;2023-02-04T13:07:17;102159.59;;;10.50;100.00